Time;durP1;ratioP1;P1;durP2;ratioP2;P2;SDS_P1;SDS_P2;PMS_P1;PMS_P2;Temp;Humidity;BMP_temperature;BMP_pressure;BME280_temperature;BME280_humidity;BME280_pressure;Samples;Min_cycle;Max_cycle;Signal;HPM_P1;HPM_P2
2022/12/11 00:00:49;;;;;;;17.50;11.05;;;12.20;66.70;;;;;;6131634;23;20001;-82
2022/12/11 00:03:16;;;;;;;16.83;10.70;;;12.40;66.20;;;;;;6157091;23;20343;-82
2022/12/11 00:05:43;;;;;;;16.40;11.05;;;12.40;66.40;;;;;;6131377;23;20443;-79
2022/12/11 00:08:08;;;;;;;14.80;10.55;;;12.10;66.50;;;;;;6131349;23;20017;-81
2022/12/11 00:10:34;;;;;;;15.90;10.05;;;11.90;66.70;;;;;;6157739;23;20085;-81
2022/12/11 00:13:00;;;;;;;14.98;9.82;;;11.70;68.10;;;;;;6131222;23;20001;-80
2022/12/11 00:15:27;;;;;;;13.85;9.50;;;11.90;67.50;;;;;;6156987;23;20020;-81
2022/12/11 00:17:52;;;;;;;18.50;11.38;;;11.70;67.80;;;;;;6131425;23;20103;-80
2022/12/11 00:20:18;;;;;;;18.15;11.63;;;11.80;67.00;;;;;;6157463;23;20001;-81
2022/12/11 00:22:44;;;;;;;19.45;13.00;;;12.00;66.40;;;;;;6157154;23;20001;-81
2022/12/11 00:25:10;;;;;;;20.95;11.52;;;12.20;66.60;;;;;;6131757;23;20335;-78
2022/12/11 00:27:36;;;;;;;16.83;11.27;;;12.60;64.70;;;;;;6157398;23;20076;-79
2022/12/11 00:30:02;;;;;;;18.02;11.70;;;12.70;65.10;;;;;;6130479;23;20040;-81
2022/12/11 00:32:28;;;;;;;19.13;12.00;;;12.70;64.60;;;;;;6130384;23;20001;-80
2022/12/11 00:34:54;;;;;;;16.60;11.35;;;12.60;64.50;;;;;;6157383;23;20002;-80
2022/12/11 00:37:20;;;;;;;17.73;12.30;;;12.50;64.60;;;;;;6131167;23;20005;-83
2022/12/11 00:39:45;;;;;;;17.92;11.60;;;12.40;65.40;;;;;;6157663;23;20092;-83
2022/12/11 00:42:11;;;;;;;17.75;10.75;;;12.00;65.60;;;;;;6130954;23;20037;-82
2022/12/11 00:44:36;;;;;;;16.38;11.43;;;11.80;67.80;;;;;;6157169;23;20519;-80
2022/12/11 00:47:03;;;;;;;17.48;10.93;;;11.80;66.80;;;;;;6131036;23;20016;-80
2022/12/11 00:49:28;;;;;;;16.98;10.60;;;11.90;67.10;;;;;;6156895;23;20036;-81
2022/12/11 00:51:54;;;;;;;15.45;9.50;;;12.00;65.80;;;;;;6131430;23;20005;-81
2022/12/11 00:54:20;;;;;;;13.93;9.18;;;12.00;65.20;;;;;;6131165;23;20016;-80
2022/12/11 00:56:45;;;;;;;14.23;9.30;;;11.90;66.20;;;;;;6130302;23;20005;-83
2022/12/11 00:59:11;;;;;;;14.63;8.98;;;11.80;66.50;;;;;;6156747;23;20009;-80
2022/12/11 01:01:37;;;;;;;13.57;8.65;;;11.70;66.50;;;;;;6130531;23;20012;-82
2022/12/11 01:04:03;;;;;;;13.15;8.82;;;11.80;66.90;;;;;;6131315;23;20458;-80
2022/12/11 01:06:29;;;;;;;12.65;7.53;;;11.70;66.00;;;;;;6130724;23;20006;-81
2022/12/11 01:11:41;;;;;;;13.00;7.93;;;11.60;66.30;;;;;;6156292;23;20033;-82
2022/12/11 01:14:08;;;;;;;14.18;8.77;;;11.50;67.20;;;;;;6129691;23;20080;-81
2022/12/11 01:16:34;;;;;;;11.93;7.93;;;11.50;66.10;;;;;;6156948;23;20014;-80
2022/12/11 01:18:59;;;;;;;15.70;8.88;;;11.40;67.40;;;;;;6157004;23;20427;-82
2022/12/11 01:21:26;;;;;;;13.85;8.27;;;11.60;66.30;;;;;;6155984;23;20012;-80
2022/12/11 01:23:52;;;;;;;13.00;7.32;;;11.80;65.60;;;;;;6156411;23;20044;-83
2022/12/11 01:26:18;;;;;;;12.18;8.20;;;11.80;65.40;;;;;;6130318;23;20001;-84
2022/12/11 01:28:44;;;;;;;10.43;6.97;;;11.80;65.20;;;;;;6130037;23;20009;-82
2022/12/11 01:31:15;;;;;;;11.05;6.93;;;11.60;65.60;;;;;;6130115;23;20033;-80
2022/12/11 01:33:41;;;;;;;12.55;7.88;;;11.50;66.10;;;;;;6156309;23;20335;-81
2022/12/11 01:36:13;;;;;;;11.90;7.10;;;11.60;66.00;;;;;;6130483;23;20400;-83
2022/12/11 01:38:39;;;;;;;10.73;7.00;;;11.70;65.70;;;;;;6156577;23;20036;-82
2022/12/11 01:41:05;;;;;;;12.18;7.85;;;11.80;65.80;;;;;;6129160;23;20013;-82
2022/12/11 01:43:31;;;;;;;14.27;8.98;;;11.60;65.50;;;;;;6130157;23;20006;-84
2022/12/11 01:45:57;;;;;;;12.38;8.07;;;11.20;66.20;;;;;;6129588;23;20092;-80
2022/12/11 01:48:26;;;;;;;15.98;9.40;;;11.00;67.00;;;;;;6130109;23;20043;-80
2022/12/11 01:51:04;;;;;;;15.50;9.18;;;10.90;68.10;;;;;;6130123;23;20391;-82
2022/12/11 01:53:35;;;;;;;14.50;9.00;;;11.00;67.70;;;;;;6156644;23;20001;-81
2022/12/11 01:56:03;;;;;;;13.85;8.63;;;11.30;66.80;;;;;;6156297;23;20009;-80
2022/12/11 01:58:32;;;;;;;14.07;9.10;;;11.40;65.20;;;;;;6156335;23;20008;-83
2022/12/11 02:01:01;;;;;;;15.20;9.93;;;11.60;65.20;;;;;;6130482;23;20427;-82
2022/12/11 02:03:26;;;;;;;15.35;9.65;;;11.40;65.50;;;;;;6155507;23;20009;-81
2022/12/11 02:05:52;;;;;;;15.70;9.93;;;11.20;65.90;;;;;;6156366;23;20025;-80
2022/12/11 02:08:19;;;;;;;15.38;9.18;;;10.80;66.80;;;;;;6130137;23;20039;-80
2022/12/11 02:10:58;;;;;;;14.98;9.85;;;10.90;66.80;;;;;;6125918;23;20402;-82
2022/12/11 02:13:52;;;;;;;14.20;9.53;;;10.80;67.30;;;;;;6130453;23;20001;-82
2022/12/11 02:16:25;;;;;;;14.77;9.38;;;10.60;67.60;;;;;;6155747;23;20025;-82
2022/12/11 02:19:00;;;;;;;13.02;8.27;;;10.30;67.40;;;;;;6156418;23;20029;-80
2022/12/11 02:21:32;;;;;;;14.38;9.05;;;10.50;68.00;;;;;;6129758;23;20006;-87
2022/12/11 02:24:07;;;;;;;13.90;8.80;;;10.60;66.40;;;;;;6129293;23;20458;-81
2022/12/11 02:27:14;;;;;;;14.25;9.02;;;10.40;66.60;;;;;;6129545;23;20009;-81
2022/12/11 02:30:09;;;;;;;15.20;9.43;;;10.40;67.00;;;;;;6155826;23;20009;-79
2022/12/11 02:32:46;;;;;;;13.38;8.60;;;10.40;67.20;;;;;;6129057;23;20068;-83
2022/12/11 02:35:16;;;;;;;14.50;8.85;;;10.60;66.70;;;;;;6156878;23;20377;-80
2022/12/11 02:37:45;;;;;;;14.33;9.00;;;10.50;66.00;;;;;;6129970;23;20005;-81
2022/12/11 02:40:14;;;;;;;12.35;8.05;;;10.40;66.00;;;;;;6130108;23;20009;-82
2022/12/11 02:42:42;;;;;;;11.43;7.00;;;10.40;66.20;;;;;;6128978;23;20008;-79
2022/12/11 02:45:10;;;;;;;12.18;7.95;;;10.40;65.60;;;;;;6156008;23;20012;-80
2022/12/11 02:47:37;;;;;;;12.65;8.18;;;10.30;66.20;;;;;;6129735;23;20431;-82
2022/12/11 02:50:08;;;;;;;11.50;7.75;;;10.20;66.60;;;;;;6130102;23;20005;-80
2022/12/11 02:52:36;;;;;;;11.25;7.03;;;10.40;65.90;;;;;;6128567;23;20033;-82
2022/12/11 02:55:04;;;;;;;11.48;7.70;;;10.50;65.40;;;;;;6155654;23;20009;-80
2022/12/11 02:57:42;;;;;;;11.10;6.80;;;10.20;65.60;;;;;;6128850;23;20072;-82
2022/12/11 03:00:09;;;;;;;12.02;7.63;;;10.50;65.50;;;;;;6155702;23;20009;-81
2022/12/11 03:02:36;;;;;;;10.73;6.50;;;10.90;65.10;;;;;;6156108;23;20073;-81
2022/12/11 03:05:02;;;;;;;10.75;7.43;;;11.10;63.30;;;;;;6155709;23;20137;-82
2022/12/11 03:07:33;;;;;;;10.55;7.05;;;10.80;63.90;;;;;;6155968;23;20025;-81
2022/12/11 03:09:59;;;;;;;10.18;6.55;;;10.70;63.40;;;;;;6129262;23;20013;-82
2022/12/11 03:12:31;;;;;;;8.00;5.53;;;10.50;65.00;;;;;;6129730;23;20006;-83
2022/12/11 03:14:59;;;;;;;8.38;5.22;;;10.20;64.90;;;;;;6129840;23;20017;-80
2022/12/11 03:17:43;;;;;;;8.95;5.00;;;10.20;64.40;;;;;;6156024;23;20006;-80
2022/12/11 03:20:38;;;;;;;8.43;5.50;;;10.20;65.50;;;;;;6129934;23;20001;-81
2022/12/11 03:23:23;;;;;;;9.52;5.93;;;10.20;64.90;;;;;;6124000;23;20339;-81
2022/12/11 03:25:56;;;;;;;8.85;5.47;;;10.40;64.00;;;;;;6156066;23;20379;-81
2022/12/11 03:28:49;;;;;;;7.47;4.95;;;10.30;63.80;;;;;;6155818;23;20021;-81
2022/12/11 03:31:33;;;;;;;8.10;4.85;;;10.40;64.30;;;;;;6129927;23;20089;-80
2022/12/11 03:34:03;;;;;;;9.30;5.38;;;10.50;63.70;;;;;;6155862;23;20024;-82
2022/12/11 03:36:37;;;;;;;8.18;5.28;;;10.50;62.80;;;;;;6130840;23;20013;-84
2022/12/11 03:39:12;;;;;;;8.00;5.18;;;10.00;64.50;;;;;;6129761;23;20002;-80
2022/12/11 03:41:39;;;;;;;8.20;5.05;;;9.90;65.20;;;;;;6155550;23;20006;-83
2022/12/11 03:44:07;;;;;;;8.68;5.25;;;10.10;64.80;;;;;;6155444;23;20002;-81
2022/12/11 03:46:37;;;;;;;7.60;5.20;;;10.20;64.60;;;;;;6130083;23;20001;-81
2022/12/11 03:49:09;;;;;;;7.40;4.88;;;10.20;64.20;;;;;;6129612;23;20080;-81
2022/12/11 03:51:36;;;;;;;7.32;4.40;;;10.30;64.50;;;;;;6155861;23;20017;-82
2022/12/11 03:54:02;;;;;;;7.32;4.70;;;10.20;64.20;;;;;;6130009;23;20033;-80
2022/12/11 03:56:30;;;;;;;6.82;4.13;;;10.20;63.60;;;;;;6155962;23;19997;-80
2022/12/11 03:58:56;;;;;;;6.65;4.45;;;10.30;63.40;;;;;;6129615;23;20033;-83
2022/12/11 04:01:22;;;;;;;7.00;4.50;;;10.10;63.90;;;;;;6129649;23;20019;-81
2022/12/11 04:03:48;;;;;;;6.72;4.40;;;9.90;64.80;;;;;;6129236;23;20018;-79
2022/12/11 04:06:13;;;;;;;6.88;4.25;;;9.70;64.90;;;;;;6156808;23;20013;-80
2022/12/11 04:08:39;;;;;;;7.70;4.88;;;9.80;65.30;;;;;;6131290;23;20088;-80
2022/12/11 04:15:00;;;;;;;7.22;4.18;;;9.70;65.10;;;;;;6157171;23;20064;-81
2022/12/11 04:16:35;;;;;;;6.72;4.30;;;9.60;66.30;;;;;;6156593;23;20021;-82
2022/12/11 04:24:28;;;;;;;7.03;4.22;;;9.70;65.20;;;;;;6157062;23;20056;-82
2022/12/11 04:26:54;;;;;;;6.53;4.63;;;9.60;65.70;;;;;;6130285;23;20366;-81
2022/12/11 04:29:20;;;;;;;6.95;4.53;;;10.00;64.30;;;;;;6156854;23;20014;-80
2022/12/11 04:31:46;;;;;;;7.60;4.82;;;10.00;64.40;;;;;;6157089;23;20427;-81
2022/12/11 04:34:11;;;;;;;8.32;5.32;;;9.80;65.00;;;;;;6156993;23;20005;-81
2022/12/11 04:36:37;;;;;;;7.43;4.82;;;10.00;64.70;;;;;;6131091;23;20006;-81
2022/12/11 04:39:04;;;;;;;8.32;5.00;;;9.90;64.20;;;;;;6156712;23;20006;-79
2022/12/11 04:41:30;;;;;;;7.35;4.68;;;9.80;65.70;;;;;;6156466;23;20068;-81
2022/12/11 04:43:55;;;;;;;8.35;5.20;;;9.90;64.70;;;;;;6131417;23;20093;-82
2022/12/11 04:46:23;;;;;;;6.72;4.47;;;9.50;64.60;;;;;;6156163;23;20453;-84
2022/12/11 04:48:50;;;;;;;7.90;4.43;;;9.50;65.40;;;;;;6131448;23;20052;-82
2022/12/11 04:51:16;;;;;;;7.90;4.65;;;9.40;65.60;;;;;;6156683;23;20008;-82
2022/12/11 04:53:42;;;;;;;7.30;4.38;;;9.30;65.90;;;;;;6131199;23;20034;-80
2022/12/11 04:56:13;;;;;;;7.03;4.30;;;9.40;65.50;;;;;;6130448;23;20005;-85
2022/12/11 04:58:40;;;;;;;7.88;4.60;;;9.50;65.30;;;;;;6130226;23;20006;-84
2022/12/11 05:01:17;;;;;;;7.05;4.35;;;9.30;66.20;;;;;;6155828;23;19998;-79
2022/12/11 05:03:45;;;;;;;7.57;4.22;;;9.30;66.00;;;;;;6155855;23;20382;-81
2022/12/11 05:06:11;;;;;;;9.57;4.35;;;9.30;66.20;;;;;;6130313;23;20009;-80
2022/12/11 05:08:39;;;;;;;6.30;4.00;;;9.30;66.00;;;;;;6156734;23;20014;-81
2022/12/11 05:11:10;;;;;;;7.05;4.30;;;9.10;66.40;;;;;;6130220;23;20012;-79
2022/12/11 05:13:36;;;;;;;5.68;3.85;;;9.10;66.70;;;;;;6130882;23;20009;-85
2022/12/11 05:16:05;;;;;;;6.82;4.25;;;8.90;67.00;;;;;;6130406;23;20013;-84
2022/12/11 05:18:31;;;;;;;6.68;4.47;;;8.70;67.40;;;;;;6130475;23;20140;-84
2022/12/11 05:21:02;;;;;;;6.70;4.25;;;8.70;68.10;;;;;;6130804;23;20033;-82
2022/12/11 05:23:28;;;;;;;6.78;3.72;;;8.50;69.10;;;;;;6130481;23;20392;-81
2022/12/11 05:25:57;;;;;;;7.15;4.15;;;8.60;68.10;;;;;;6156882;23;20029;-83
2022/12/11 05:28:24;;;;;;;6.65;4.13;;;8.70;68.30;;;;;;6129668;23;20009;-81
2022/12/11 05:31:04;;;;;;;6.90;4.32;;;8.80;67.90;;;;;;6130056;23;20033;-84
2022/12/11 05:33:31;;;;;;;7.45;4.43;;;8.70;67.30;;;;;;6130818;23;20014;-81
2022/12/11 05:35:56;;;;;;;6.68;4.28;;;8.70;67.70;;;;;;6129962;23;20005;-86
2022/12/11 05:38:22;;;;;;;5.85;4.10;;;8.80;67.80;;;;;;6130544;23;20009;-84
2022/12/11 05:41:03;;;;;;;7.13;4.38;;;8.70;67.70;;;;;;6130552;23;20005;-81
2022/12/11 05:43:30;;;;;;;5.65;3.97;;;8.70;68.20;;;;;;6130490;23;20017;-83
2022/12/11 05:46:23;;;;;;;5.68;3.83;;;8.50;68.90;;;;;;6130373;23;20327;-80
2022/12/11 05:48:54;;;;;;;6.70;4.25;;;8.50;69.00;;;;;;6130267;23;20018;-81
2022/12/11 05:51:20;;;;;;;6.50;4.22;;;8.60;67.90;;;;;;6156321;23;19997;-82
2022/12/11 05:53:48;;;;;;;6.47;3.97;;;8.40;68.70;;;;;;6130737;23;20012;-80
2022/12/11 05:56:22;;;;;;;6.53;3.90;;;8.20;69.60;;;;;;6130208;23;20013;-81
2022/12/11 05:58:49;;;;;;;6.03;3.92;;;8.00;69.40;;;;;;6129565;23;20386;-83
2022/12/11 06:01:20;;;;;;;6.05;3.78;;;8.20;69.60;;;;;;6129724;23;20450;-80
2022/12/11 06:03:46;;;;;;;6.40;3.90;;;8.20;69.60;;;;;;6155805;23;20005;-84
2022/12/11 06:06:12;;;;;;;6.72;4.20;;;8.20;70.00;;;;;;6130160;23;20104;-81
2022/12/11 06:08:38;;;;;;;7.38;4.40;;;8.20;70.10;;;;;;6130536;23;20014;-81
2022/12/11 06:11:05;;;;;;;6.30;3.85;;;8.30;70.10;;;;;;6156948;23;20328;-80
2022/12/11 06:13:31;;;;;;;6.32;3.80;;;8.40;68.90;;;;;;6156058;23;20014;-80
2022/12/11 06:16:02;;;;;;;7.63;3.97;;;8.30;69.20;;;;;;6155776;23;20025;-80
2022/12/11 06:18:27;;;;;;;6.78;4.10;;;8.10;69.20;;;;;;6130161;23;20013;-81
2022/12/11 06:20:53;;;;;;;6.70;3.90;;;8.30;68.30;;;;;;6156079;23;20001;-81
2022/12/11 06:23:19;;;;;;;7.18;4.35;;;8.70;68.20;;;;;;6130191;23;20013;-82
2022/12/11 06:25:45;;;;;;;5.93;4.28;;;8.70;67.80;;;;;;6156602;23;20308;-84
2022/12/11 06:28:11;;;;;;;7.57;4.40;;;8.80;67.00;;;;;;6130593;23;20469;-80
2022/12/11 06:30:36;;;;;;;7.15;4.43;;;8.60;67.60;;;;;;6156111;23;20032;-82
2022/12/11 06:33:02;;;;;;;6.95;3.97;;;8.30;68.30;;;;;;6156748;23;20089;-79
2022/12/11 06:35:28;;;;;;;6.10;4.05;;;8.20;68.90;;;;;;6129659;23;20001;-82
2022/12/11 06:37:53;;;;;;;8.75;4.75;;;8.20;68.50;;;;;;6130070;23;20358;-81
2022/12/11 06:40:21;;;;;;;6.80;4.30;;;8.00;69.80;;;;;;6130390;23;20009;-80
2022/12/11 06:42:46;;;;;;;7.95;5.00;;;8.10;69.10;;;;;;6155658;23;20002;-80
2022/12/11 06:45:12;;;;;;;8.45;4.90;;;7.90;69.60;;;;;;6128953;23;20006;-80
2022/12/11 06:47:38;;;;;;;9.05;5.30;;;8.00;69.50;;;;;;6154836;23;20001;-80
2022/12/11 06:50:04;;;;;;;9.00;4.93;;;7.90;69.90;;;;;;6155088;23;20042;-81
2022/12/11 06:52:29;;;;;;;7.88;4.80;;;8.20;69.10;;;;;;6154568;23;20005;-80
2022/12/11 06:54:56;;;;;;;8.25;4.65;;;8.00;68.70;;;;;;6129876;23;20457;-80
2022/12/11 06:57:22;;;;;;;9.88;5.22;;;7.90;69.60;;;;;;6129073;23;20013;-79
2022/12/11 06:59:48;;;;;;;9.23;5.13;;;8.20;69.10;;;;;;6155480;23;20079;-82
2022/12/11 07:02:16;;;;;;;7.45;4.72;;;8.20;68.30;;;;;;6129258;23;20376;-78
2022/12/11 07:04:42;;;;;;;8.52;4.93;;;8.20;68.60;;;;;;6155083;23;20009;-79
2022/12/11 07:07:08;;;;;;;7.10;4.47;;;8.30;68.40;;;;;;6142923;23;20005;-84
2022/12/11 07:09:34;;;;;;;8.15;4.97;;;8.30;68.20;;;;;;6152416;23;20017;-79
2022/12/11 07:12:00;;;;;;;8.02;4.70;;;8.20;68.00;;;;;;6126572;23;20562;-79
2022/12/11 07:14:25;;;;;;;8.55;4.43;;;7.90;68.40;;;;;;6126244;23;20085;-78
2022/12/11 07:16:51;;;;;;;8.77;5.40;;;7.90;68.20;;;;;;6126208;23;20100;-80
2022/12/11 07:19:17;;;;;;;8.90;5.20;;;8.20;68.80;;;;;;6152627;23;20427;-81
2022/12/11 07:21:43;;;;;;;9.10;4.53;;;8.80;66.70;;;;;;6126664;23;20343;-79
2022/12/11 07:24:08;;;;;;;8.18;4.43;;;8.60;67.80;;;;;;6153029;23;20005;-78
2022/12/11 07:26:34;;;;;;;7.40;4.68;;;8.60;67.40;;;;;;6152699;23;20065;-81
2022/12/11 07:29:00;;;;;;;8.27;5.00;;;8.60;66.40;;;;;;6125773;23;20478;-78
2022/12/11 07:31:28;;;;;;;7.88;4.32;;;8.90;66.70;;;;;;6126472;23;20125;-78
2022/12/11 07:33:55;;;;;;;7.57;4.63;;;8.90;66.20;;;;;;6125934;23;20013;-78
2022/12/11 07:36:22;;;;;;;7.85;4.35;;;8.90;66.10;;;;;;6125999;23;20013;-78
2022/12/11 07:38:47;;;;;;;7.60;5.00;;;9.10;66.10;;;;;;6126784;23;20001;-80
2022/12/11 07:41:14;;;;;;;7.80;4.60;;;9.10;65.70;;;;;;6154720;23;20012;-80
2022/12/11 07:43:41;;;;;;;6.82;4.53;;;8.90;65.40;;;;;;6127943;23;20072;-80
2022/12/11 07:46:11;;;;;;;6.60;4.35;;;9.00;66.10;;;;;;6128111;23;20490;-84
2022/12/11 07:48:38;;;;;;;8.43;5.00;;;8.90;65.50;;;;;;6103297;23;20071;-80
2022/12/11 07:51:16;;;;;;;7.97;4.22;;;9.10;65.30;;;;;;6153610;23;20065;-80
2022/12/11 07:53:47;;;;;;;7.40;4.25;;;9.30;64.40;;;;;;6128034;23;20082;-81
2022/12/11 07:56:14;;;;;;;7.30;4.38;;;9.30;64.80;;;;;;6154728;23;20343;-81
2022/12/11 07:58:53;;;;;;;7.07;4.47;;;9.30;64.80;;;;;;6127824;23;20020;-82
2022/12/11 08:01:26;;;;;;;6.80;4.25;;;9.00;64.40;;;;;;6128427;23;20009;-80
2022/12/11 08:03:53;;;;;;;7.50;4.57;;;8.60;65.50;;;;;;6128442;23;20068;-79
2022/12/11 08:06:24;;;;;;;7.30;4.10;;;9.00;66.10;;;;;;6128860;23;20005;-84
2022/12/11 08:08:49;;;;;;;6.95;3.97;;;8.80;64.30;;;;;;6128891;23;20068;-81
2022/12/11 08:11:15;;;;;;;7.60;4.05;;;8.70;65.20;;;;;;6155493;23;19998;-83
2022/12/11 08:13:43;;;;;;;7.20;4.22;;;8.30;65.40;;;;;;6129928;23;20434;-81
2022/12/11 08:16:11;;;;;;;7.75;5.10;;;8.10;66.10;;;;;;6129767;23;20022;-84
2022/12/11 08:18:37;;;;;;;7.57;4.43;;;8.30;65.80;;;;;;6128889;23;20488;-84
2022/12/11 08:21:15;;;;;;;6.40;3.60;;;8.70;66.30;;;;;;6127706;23;20706;-82
2022/12/11 08:23:41;;;;;;;7.40;4.30;;;9.00;65.20;;;;;;6157209;23;20022;-89
2022/12/11 08:26:15;;;;;;;7.03;4.25;;;9.20;63.50;;;;;;6130288;23;20002;-81
2022/12/11 08:28:41;;;;;;;8.27;4.57;;;8.90;64.40;;;;;;6130269;23;20021;-81
2022/12/11 08:31:08;;;;;;;7.05;4.32;;;8.90;65.10;;;;;;6131032;23;20002;-81
2022/12/11 08:33:37;;;;;;;9.45;4.47;;;8.30;65.00;;;;;;6156993;23;20005;-85
2022/12/11 08:36:06;;;;;;;8.18;4.32;;;8.20;66.30;;;;;;6131526;23;20009;-86
2022/12/11 08:38:32;;;;;;;7.38;4.70;;;8.30;65.90;;;;;;6131574;23;20089;-84
2022/12/11 08:40:57;;;;;;;7.15;4.05;;;8.40;65.10;;;;;;6156761;23;19997;-81
2022/12/11 08:43:23;;;;;;;6.30;4.05;;;8.40;65.40;;;;;;6130747;23;20064;-82
2022/12/11 08:45:49;;;;;;;6.78;3.75;;;8.60;65.60;;;;;;6155776;23;19997;-84
2022/12/11 08:48:15;;;;;;;6.68;4.30;;;8.80;64.30;;;;;;6155882;23;20148;-82
2022/12/11 08:50:44;;;;;;;7.82;4.47;;;9.00;65.10;;;;;;6129815;23;20010;-83
2022/12/11 08:53:09;;;;;;;6.82;4.05;;;9.30;62.90;;;;;;6130816;23;20028;-85
2022/12/11 08:55:35;;;;;;;6.40;3.70;;;9.00;63.30;;;;;;6131436;23;20025;-84
2022/12/11 08:58:01;;;;;;;7.10;3.50;;;8.80;63.40;;;;;;6130285;23;20006;-81
2022/12/11 09:00:26;;;;;;;7.28;3.78;;;8.80;64.20;;;;;;6130854;23;20016;-82
2022/12/11 09:02:52;;;;;;;5.93;3.38;;;8.80;64.70;;;;;;6130934;23;19997;-83
2022/12/11 09:05:18;;;;;;;6.15;3.35;;;8.80;64.50;;;;;;6131149;23;20005;-81
2022/12/11 09:07:43;;;;;;;7.30;4.00;;;8.80;63.60;;;;;;6156858;23;20008;-81
2022/12/11 09:10:22;;;;;;;;;;;;;;;;;;;;;
2022/12/11 09:12:51;;;;;;;7.15;3.80;;;8.80;64.40;;;;;;6156874;23;20380;-83
2022/12/11 09:15:17;;;;;;;7.80;5.35;;;8.60;64.70;;;;;;6130559;23;20022;-79
2022/12/11 09:17:43;;;;;;;6.22;4.00;;;8.70;64.40;;;;;;6156456;23;20065;-81
2022/12/11 09:20:21;;;;;;;5.55;3.30;;;9.10;64.00;;;;;;6156327;23;20035;-83
2022/12/11 09:22:46;;;;;;;6.80;3.75;;;9.20;61.90;;;;;;6156575;23;20068;-82
2022/12/11 09:25:15;;;;;;;18.05;15.10;;;8.70;63.80;;;;;;6156661;23;20021;-81
2022/12/11 09:27:41;;;;;;;14.57;13.05;;;8.70;63.90;;;;;;6157109;23;20059;-86
2022/12/11 09:30:07;;;;;;;12.07;10.85;;;8.70;64.10;;;;;;6156382;23;20033;-84
2022/12/11 09:32:33;;;;;;;12.32;9.40;;;8.70;64.10;;;;;;6131265;23;19998;-87
2022/12/11 09:35:06;;;;;;;5.68;3.95;;;8.70;64.30;;;;;;6131135;23;20012;-88
2022/12/11 09:37:35;;;;;;;9.10;7.35;;;8.70;64.40;;;;;;6157380;23;20002;-84
2022/12/11 09:40:02;;;;;;;8.05;5.95;;;8.80;64.40;;;;;;6156838;23;20016;-81
2022/12/11 09:42:56;;;;;;;9.88;8.45;;;8.80;64.00;;;;;;6130646;23;20391;-83
2022/12/11 09:45:25;;;;;;;6.10;3.70;;;8.70;64.00;;;;;;6130036;23;20590;-82
2022/12/11 09:48:00;;;;;;;6.45;4.10;;;9.10;63.30;;;;;;6130322;23;20222;-88
2022/12/11 09:50:32;;;;;;;6.20;3.88;;;8.80;63.50;;;;;;6130581;23;20016;-82
2022/12/11 09:53:15;;;;;;;5.97;4.22;;;8.60;64.30;;;;;;6130395;23;20008;-92
2022/12/11 09:56:05;;;;;;;7.15;5.05;;;8.70;64.40;;;;;;6130123;23;20092;-85
2022/12/11 09:58:47;;;;;;;6.05;3.92;;;8.90;63.40;;;;;;6130196;23;20006;-83
2022/12/11 10:04:31;;;;;;;9.60;5.68;;;9.00;62.20;;;;;;6155871;23;20075;-81
2022/12/11 10:07:15;;;;;;;20.27;15.38;;;9.20;62.60;;;;;;6130536;23;20005;-85
2022/12/11 10:10:21;;;;;;;8.13;6.35;;;9.40;62.20;;;;;;6130922;23;20016;-83
2022/12/11 10:13:21;;;;;;;15.25;12.65;;;9.60;60.90;;;;;;6130395;23;20001;-83
2022/12/11 10:16:03;;;;;;;16.52;11.23;;;8.80;61.80;;;;;;6130219;23;20088;-83
2022/12/11 10:18:38;;;;;;;10.07;9.05;;;8.60;63.50;;;;;;6155922;23;20097;-82
2022/12/11 10:21:04;;;;;;;7.10;4.35;;;8.80;63.00;;;;;;6152633;23;20013;-81
2022/12/11 10:23:39;;;;;;;6.60;3.50;;;9.20;61.90;;;;;;6129604;23;19998;-86
2022/12/11 10:26:29;;;;;;;7.20;5.15;;;9.40;62.10;;;;;;6130230;23;20335;-85
2022/12/11 10:29:18;;;;;;;7.50;5.35;;;9.20;61.10;;;;;;6130276;23;20041;-82
2022/12/11 10:31:54;;;;;;;11.57;9.75;;;9.10;61.60;;;;;;5985152;23;20059;-81
2022/12/11 10:37:45;;;;;;;16.58;14.60;;;9.10;62.20;;;;;;5896722;24;20074;-85
2022/12/11 10:40:12;;;;;;;9.43;6.45;;;9.10;61.10;;;;;;5873908;24;20021;-79
2022/12/11 10:42:38;;;;;;;11.27;6.72;;;8.80;61.50;;;;;;5873160;24;20093;-83
2022/12/11 10:45:05;;;;;;;9.82;6.60;;;8.90;62.10;;;;;;5873981;24;20033;-82
2022/12/11 10:48:09;;;;;;;11.52;8.00;;;9.10;62.00;;;;;;5875189;24;20539;-86
2022/12/11 10:50:35;;;;;;;12.52;8.68;;;8.90;62.00;;;;;;5896648;24;20098;-81
2022/12/11 10:53:04;;;;;;;8.38;6.70;;;9.10;61.60;;;;;;5873654;24;20013;-82
2022/12/11 10:55:42;;;;;;;10.17;7.63;;;9.40;60.20;;;;;;5895995;24;20084;-83
2022/12/11 10:58:18;;;;;;;9.68;7.30;;;9.60;60.70;;;;;;5873349;24;20013;-79
2022/12/11 11:01:05;;;;;;;58.40;54.03;;;9.80;60.10;;;;;;5873590;24;20010;-82
2022/12/11 11:03:32;;;;;;;6.20;3.78;;;9.10;60.50;;;;;;5896231;24;20021;-82
2022/12/11 11:06:19;;;;;;;7.07;6.10;;;8.60;61.90;;;;;;5896361;24;20035;-81
2022/12/11 11:08:50;;;;;;;9.10;8.20;;;8.50;62.30;;;;;;5941076;23;20022;-82
2022/12/11 11:11:24;;;;;;;8.27;6.75;;;8.80;62.30;;;;;;6036235;23;20007;-82
2022/12/11 11:14:03;;;;;;;8.93;7.60;;;8.90;61.10;;;;;;6055099;23;20688;-82
2022/12/11 11:16:29;;;;;;;7.35;5.68;;;9.00;61.80;;;;;;6153269;23;20438;-81
2022/12/11 11:18:57;;;;;;;12.60;9.27;;;9.00;61.80;;;;;;6152768;23;20009;-81
2022/12/11 11:21:24;;;;;;;6.20;4.07;;;9.40;61.60;;;;;;6126784;23;20013;-83
2022/12/11 11:23:52;;;;;;;12.10;9.20;;;9.20;60.00;;;;;;6152679;23;20005;-84
2022/12/11 11:26:19;;;;;;;6.45;3.75;;;9.20;61.20;;;;;;6129369;23;20331;-82
2022/12/11 11:28:54;;;;;;;6.30;3.80;;;9.20;60.30;;;;;;6155187;23;20005;-82
2022/12/11 11:31:30;;;;;;;7.03;4.28;;;9.60;59.90;;;;;;6128999;23;20033;-83
2022/12/11 11:34:01;;;;;;;8.48;6.00;;;9.40;59.70;;;;;;6130235;23;20005;-86
2022/12/11 11:36:37;;;;;;;7.10;4.47;;;9.40;60.00;;;;;;6128577;23;20045;-84
2022/12/11 11:39:18;;;;;;;7.47;4.68;;;9.00;61.00;;;;;;6129628;23;20025;-81
2022/12/11 11:42:05;;;;;;;6.53;4.10;;;9.00;60.40;;;;;;6129448;23;20005;-80
2022/12/11 11:44:36;;;;;;;12.13;6.95;;;9.20;61.30;;;;;;6129905;23;20032;-83
2022/12/11 11:47:26;;;;;;;11.65;6.45;;;9.20;60.00;;;;;;6129945;23;20001;-84
2022/12/11 11:50:02;;;;;;;6.68;4.63;;;8.90;60.40;;;;;;6129691;23;20025;-82
2022/12/11 11:52:47;;;;;;;6.88;3.97;;;9.00;61.00;;;;;;6129142;23;19998;-84
2022/12/11 11:55:34;;;;;;;5.97;4.10;;;9.30;60.40;;;;;;6155312;23;20001;-81
2022/12/11 11:58:08;;;;;;;7.38;3.97;;;9.50;60.00;;;;;;6129030;23;20052;-81
2022/12/11 12:00:34;;;;;;;8.27;5.43;;;9.30;59.10;;;;;;6129198;23;20422;-84
2022/12/11 12:03:11;;;;;;;12.98;6.32;;;9.20;60.00;;;;;;6155402;23;20072;-82
2022/12/11 12:05:52;;;;;;;13.30;7.72;;;9.20;60.30;;;;;;6128951;23;20407;-82
2022/12/11 12:08:44;;;;;;;44.38;33.10;;;9.40;59.40;;;;;;6155254;23;20092;-80
2022/12/11 12:11:39;;;;;;;247.25;152.85;;;9.20;59.60;;;;;;6156835;23;20029;-81
2022/12/11 12:14:35;;;;;;;166.60;131.27;;;9.00;60.80;;;;;;6129986;23;20434;-79
2022/12/11 12:17:30;;;;;;;42.95;38.65;;;9.20;60.10;;;;;;6129408;23;20415;-79
2022/12/11 12:20:37;;;;;;;49.15;43.80;;;9.10;60.30;;;;;;6129342;23;20006;-80
2022/12/11 12:23:27;;;;;;;14.48;8.75;;;9.30;59.30;;;;;;6155345;23;19998;-80
2022/12/11 12:25:59;;;;;;;96.55;52.15;;;9.00;59.60;;;;;;6156476;23;19993;-85
2022/12/11 12:28:37;;;;;;;66.60;49.63;;;9.30;59.20;;;;;;6126338;23;20419;-83
2022/12/11 12:31:39;;;;;;;15.20;10.95;;;9.40;58.60;;;;;;6128260;23;20495;-86
2022/12/11 12:34:31;;;;;;;24.75;20.42;;;9.10;59.00;;;;;;6101910;23;20006;-82
2022/12/11 12:37:04;;;;;;;9.52;6.50;;;8.80;60.80;;;;;;6101010;23;20014;-81
2022/12/11 12:39:44;;;;;;;78.15;45.08;;;9.10;59.90;;;;;;6101759;23;20069;-84
2022/12/11 12:42:37;;;;;;;137.23;68.90;;;9.30;59.60;;;;;;6100904;23;20002;-84
2022/12/11 12:45:16;;;;;;;31.70;25.88;;;9.50;59.60;;;;;;6099752;23;20009;-82
2022/12/11 12:47:45;;;;;;;10.27;8.45;;;9.80;58.60;;;;;;6124773;23;20053;-79
2022/12/11 12:50:20;;;;;;;12.82;11.05;;;10.10;58.70;;;;;;6124999;23;20329;-83
2022/12/11 12:52:47;;;;;;;22.60;20.00;;;10.10;58.30;;;;;;6100058;23;20010;-84
2022/12/11 12:55:23;;;;;;;16.17;11.23;;;10.00;57.40;;;;;;6099704;23;20010;-83
2022/12/11 12:58:01;;;;;;;9.63;8.07;;;9.40;58.20;;;;;;6125061;23;20069;-80
2022/12/11 13:00:27;;;;;;;7.82;5.70;;;9.00;59.30;;;;;;6123976;23;20010;-81
2022/12/11 13:02:54;;;;;;;10.40;8.15;;;9.20;59.70;;;;;;6098307;23;20010;-83
2022/12/11 13:05:24;;;;;;;8.30;5.55;;;9.20;59.20;;;;;;6098267;23;20494;-82
2022/12/11 13:07:55;;;;;;;8.02;4.90;;;9.40;59.30;;;;;;6099108;23;20066;-82
2022/12/11 13:10:31;;;;;;;7.82;5.13;;;9.60;58.10;;;;;;6097861;23;20444;-80
2022/12/11 13:12:57;;;;;;;7.68;5.00;;;9.90;58.50;;;;;;6098857;23;20459;-82
2022/12/11 13:15:32;;;;;;;7.72;4.45;;;9.90;57.60;;;;;;6124940;23;20080;-81
2022/12/11 13:18:00;;;;;;;8.82;5.18;;;9.90;58.30;;;;;;6099470;23;20009;-85
2022/12/11 13:20:29;;;;;;;8.07;5.47;;;9.70;57.60;;;;;;6124823;23;20411;-83
2022/12/11 13:23:19;;;;;;;7.90;4.85;;;9.50;58.40;;;;;;6098620;23;20044;-85
2022/12/11 13:25:54;;;;;;;7.33;5.07;;;9.40;58.20;;;;;;6099350;23;20010;-83
2022/12/11 13:28:31;;;;;;;8.05;4.82;;;9.50;59.00;;;;;;6099052;23;20279;-82